Aérodrome :
LOGIN :

S'inscrire | Disclaimer

   EN    FR    IT 

 










Légende :    VFR   VFR Marginal   IFR   IFR Intensif   IFR Très Intensif
Visi : 
Plafond : 
>= 8 km
>= 3000ft
5 à 8 km
1000 à 3000 ft
1500m à 5 km
500 à 1000 ft
800 à 1500m
200 à 500 ft
< 800m
< 200 ft
Symboles :   Orages  Brouillard  Fortes neiges  Fortes précipitations  Vent > 20 kt
SIGMETs :   Divers  Orages  Givrage  Turbulence  Onde Orograph.  Cendres Volcan.







- Altitude de l'aérodrome : 526 ft
- Code IATA : LTN
- Voir les cartes d'approche


EGGW - London Luton

DERNIER METAR :
  • 160750Z AUTO 19005KT 150V230 3200 BR OVC003 14/14 Q1016

METARs EXPIRÉS :
  • 160720Z AUTO 18004KT 140V220 3500 BR BKN004 OVC008 13/13 Q1015
  • 160650Z AUTO 19006KT 140V220 2800 BR BKN002 OVC007 14/14 Q1015
  • 160620Z AUTO 16005KT 2300 BR OVC003 14/14 Q1015
  • 160550Z AUTO 15007KT 2100 BR OVC002 14/14 Q1015
  • 160520Z AUTO 15007KT 1700 BR VV/// 14/14 Q1014

TAF TAF EGGW
Valide du 16 à 06h jusqu'au 17 à 06h UTC


160505Z 1606/1706 15006KT 0200 FG OVC000
PROB40
TEMPO 1606/1608 2000 -DZ BR BKN002
BECMG 1608/1611 4000 BR BKN007
BECMG 1611/1614 22010KT 9999 NSW SCT015
BECMG 1704/1706 7000 -RA OVC008
TEMPO 1704/1706 3000 RADZ OVC004
ATIS : +44 1582 395 204
Pas de NOTAMs connus pour ce terrain.



MET'MAP, la Météo Aéronautique d'un coup d'oeil ! - Copyright ORBIFLY Décembre 2007 - Disclaimer

ORBIFLY MET'MAP TEAM :

Programmation & Développement : Alexandra Zaïnal
Conception & Développement : Baudouin d'Aumeries
Co-Programmation & Développement : Marc-Olivier Méhu
Soutien technique & logistique : Manuel Goepfert

Contact : metmap@orbifly.com




SOURCES & CREDITS :

   NOAA